Time;durP1;ratioP1;P1;durP2;ratioP2;P2;SDS_P1;SDS_P2;PMS_P1;PMS_P2;Temp;Humidity;BMP_temperature;BMP_pressure;BME280_temperature;BME280_humidity;BME280_pressure;Samples;Min_cycle;Max_cycle;Signal;HPM_P1;HPM_P2
2022/10/05 00:00:09;;;;;;;11.80;3.40;;;;;;;;;;5039320;28;20434;-74
2022/10/05 00:02:35;;;;;;;11.25;3.85;;;;;;;;;;5046938;28;20029;-74
2022/10/05 00:05:05;;;;;;;7.07;3.22;;;;;;;;;;5064535;28;20024;-74
2022/10/05 00:07:31;;;;;;;9.45;3.30;;;;;;;;;;5041882;28;20395;-74
2022/10/05 00:09:58;;;;;;;12.50;3.75;;;;;;;;;;5068734;28;20023;-73
2022/10/05 00:12:25;;;;;;;10.05;3.85;;;;;;;;;;5064881;28;20025;-74
2022/10/05 00:14:53;;;;;;;8.98;3.17;;;;;;;;;;5063261;28;20031;-74
2022/10/05 00:17:23;;;;;;;10.57;3.45;;;;;;;;;;5049683;28;20040;-74
2022/10/05 00:19:51;;;;;;;9.60;2.83;;;;;;;;;;5056135;28;20028;-74
2022/10/05 00:22:21;;;;;;;10.25;3.33;;;;;;;;;;5072147;28;20151;-74
2022/10/05 00:24:48;;;;;;;7.90;2.85;;;;;;;;;;5047071;28;20066;-74
2022/10/05 00:27:22;;;;;;;8.90;2.72;;;;;;;;;;5058889;28;20719;-74
2022/10/05 00:29:49;;;;;;;9.75;3.05;;;;;;;;;;5047594;28;20025;-74
2022/10/05 00:32:15;;;;;;;8.73;2.85;;;;;;;;;;5070366;28;20073;-74
2022/10/05 00:34:42;;;;;;;10.18;2.83;;;;;;;;;;5072501;28;20033;-75
2022/10/05 00:37:08;;;;;;;9.32;2.80;;;;;;;;;;5067795;28;20035;-75
2022/10/05 00:39:36;;;;;;;6.00;2.60;;;;;;;;;;5063044;28;20076;-74
2022/10/05 00:42:08;;;;;;;14.18;3.65;;;;;;;;;;5060968;28;20458;-74
2022/10/05 00:44:41;;;;;;;28.10;4.68;;;;;;;;;;5064629;28;20032;-77
2022/10/05 00:47:07;;;;;;;4.93;2.50;;;;;;;;;;5069306;28;20047;-74
2022/10/05 00:49:47;;;;;;;5.40;2.20;;;;;;;;;;5049478;28;20044;-75
2022/10/05 00:52:23;;;;;;;8.10;2.40;;;;;;;;;;5063829;28;20024;-75
2022/10/05 00:54:49;;;;;;;5.50;2.30;;;;;;;;;;5063497;28;20497;-75
2022/10/05 00:57:21;;;;;;;3.58;2.13;;;;;;;;;;5066638;28;20371;-75
2022/10/05 00:59:59;;;;;;;4.43;2.00;;;;;;;;;;5071868;28;20469;-75
2022/10/05 01:02:44;;;;;;;2.92;2.20;;;;;;;;;;5066418;28;20048;-75
2022/10/05 01:05:33;;;;;;;3.53;1.90;;;;;;;;;;5046392;28;20040;-75
2022/10/05 01:08:05;;;;;;;3.03;1.90;;;;;;;;;;5064390;28;20370;-75
2022/10/05 01:10:31;;;;;;;3.20;1.77;;;;;;;;;;5067564;28;20047;-75
2022/10/05 01:13:03;;;;;;;4.32;2.30;;;;;;;;;;5071479;28;20554;-74
2022/10/05 01:15:44;;;;;;;1.98;1.50;;;;;;;;;;5066200;28;20032;-74
2022/10/05 01:18:29;;;;;;;3.33;2.22;;;;;;;;;;5064458;28;20161;-75
2022/10/05 01:21:00;;;;;;;4.07;1.90;;;;;;;;;;5047324;28;20029;-75
2022/10/05 01:23:35;;;;;;;2.38;1.88;;;;;;;;;;5066156;28;20029;-75
2022/10/05 01:26:11;;;;;;;2.05;1.80;;;;;;;;;;5049361;28;20567;-75
2022/10/05 01:28:37;;;;;;;1.98;1.77;;;;;;;;;;5064901;28;20043;-75
2022/10/05 01:31:16;;;;;;;2.70;1.92;;;;;;;;;;5067704;28;20036;-76
2022/10/05 01:33:48;;;;;;;2.03;1.83;;;;;;;;;;5069384;28;20028;-76
2022/10/05 01:36:24;;;;;;;2.42;1.70;;;;;;;;;;5063271;28;20500;-76
2022/10/05 01:39:07;;;;;;;1.73;1.60;;;;;;;;;;5060745;28;20025;-76
2022/10/05 01:41:33;;;;;;;2.47;1.83;;;;;;;;;;5062610;28;20094;-76
2022/10/05 01:43:59;;;;;;;2.13;1.80;;;;;;;;;;5061526;28;20033;-75
2022/10/05 01:46:32;;;;;;;2.00;1.70;;;;;;;;;;5062122;28;20411;-75
2022/10/05 01:48:58;;;;;;;3.08;1.60;;;;;;;;;;5060154;28;20104;-76
2022/10/05 01:51:42;;;;;;;1.42;1.33;;;;;;;;;;5054338;28;20031;-75
2022/10/05 01:54:35;;;;;;;2.03;1.70;;;;;;;;;;5047503;28;20155;-75
2022/10/05 01:57:01;;;;;;;1.80;1.70;;;;;;;;;;5041628;28;20482;-76
2022/10/05 01:59:36;;;;;;;1.70;1.60;;;;;;;;;;5068193;28;20048;-76
2022/10/05 02:02:21;;;;;;;1.65;1.55;;;;;;;;;;5060992;28;20027;-76
2022/10/05 02:04:47;;;;;;;1.70;1.60;;;;;;;;;;5059756;28;20033;-75
2022/10/05 02:07:20;;;;;;;2.55;1.85;;;;;;;;;;5066718;28;20029;-76
2022/10/05 02:09:54;;;;;;;3.10;1.60;;;;;;;;;;5069769;28;20017;-76
2022/10/05 02:12:23;;;;;;;2.47;1.85;;;;;;;;;;5061073;28;20113;-75
2022/10/05 02:14:50;;;;;;;2.92;1.80;;;;;;;;;;5043694;28;20036;-75
2022/10/05 02:17:17;;;;;;;4.38;1.90;;;;;;;;;;5049267;28;20027;-75
2022/10/05 02:19:52;;;;;;;3.35;1.80;;;;;;;;;;5052183;28;20477;-75
2022/10/05 02:22:18;;;;;;;2.70;1.60;;;;;;;;;;5071568;28;20035;-75
2022/10/05 02:24:47;;;;;;;2.00;1.70;;;;;;;;;;5065997;28;20056;-76
2022/10/05 02:27:17;;;;;;;3.38;2.15;;;;;;;;;;5064415;28;20028;-75
2022/10/05 02:29:46;;;;;;;3.17;1.70;;;;;;;;;;5069343;28;20027;-75
2022/10/05 02:32:15;;;;;;;2.80;1.85;;;;;;;;;;5092539;28;20051;-75
2022/10/05 02:34:42;;;;;;;4.80;1.80;;;;;;;;;;5070674;28;20027;-75
2022/10/05 02:37:08;;;;;;;3.50;1.77;;;;;;;;;;5079478;28;20081;-75
2022/10/05 02:39:37;;;;;;;2.15;1.60;;;;;;;;;;5057811;28;20028;-76
2022/10/05 02:42:07;;;;;;;2.17;1.58;;;;;;;;;;5072296;28;20047;-75
2022/10/05 02:44:33;;;;;;;1.88;1.60;;;;;;;;;;5059062;28;20040;-75
2022/10/05 02:47:05;;;;;;;3.55;1.52;;;;;;;;;;5054857;28;20024;-75
2022/10/05 02:49:35;;;;;;;1.67;1.58;;;;;;;;;;5074770;28;20020;-74
2022/10/05 02:52:13;;;;;;;3.55;1.50;;;;;;;;;;5061564;28;20021;-75
2022/10/05 02:54:57;;;;;;;2.47;1.73;;;;;;;;;;5065694;28;20063;-75
2022/10/05 02:57:36;;;;;;;1.83;1.60;;;;;;;;;;5055551;28;20040;-76
2022/10/05 03:00:31;;;;;;;1.70;1.60;;;;;;;;;;5070061;28;20058;-76
2022/10/05 03:03:01;;;;;;;2.22;1.38;;;;;;;;;;5054240;28;20068;-75
2022/10/05 03:05:31;;;;;;;2.08;1.65;;;;;;;;;;5076850;28;20027;-74
2022/10/05 03:08:07;;;;;;;1.50;1.40;;;;;;;;;;5066112;28;20477;-75
2022/10/05 03:10:44;;;;;;;3.20;1.40;;;;;;;;;;5049141;28;20024;-75
2022/10/05 03:13:23;;;;;;;2.65;1.30;;;;;;;;;;5069926;28;20689;-75
2022/10/05 03:15:57;;;;;;;2.65;1.40;;;;;;;;;;5069946;28;20028;-75
2022/10/05 03:18:29;;;;;;;2.00;1.50;;;;;;;;;;5067846;28;20036;-75
2022/10/05 03:21:01;;;;;;;1.27;1.17;;;;;;;;;;5047883;28;20123;-76
2022/10/05 03:23:35;;;;;;;1.30;1.20;;;;;;;;;;5066036;28;20492;-75
2022/10/05 03:26:10;;;;;;;4.55;1.58;;;;;;;;;;5065315;28;20075;-75
2022/10/05 03:28:43;;;;;;;0.98;0.95;;;;;;;;;;5063543;28;20037;-74
2022/10/05 03:31:25;;;;;;;1.55;1.10;;;;;;;;;;5050753;28;20043;-75
2022/10/05 03:34:04;;;;;;;1.02;1.02;;;;;;;;;;5064179;28;20033;-77
2022/10/05 03:36:50;;;;;;;1.13;1.00;;;;;;;;;;5065859;28;20492;-75
2022/10/05 03:39:21;;;;;;;1.08;1.08;;;;;;;;;;5068460;28;20028;-75
2022/10/05 03:41:53;;;;;;;0.80;0.80;;;;;;;;;;5068192;28;20457;-75
2022/10/05 03:44:22;;;;;;;1.00;1.00;;;;;;;;;;5065477;28;20032;-75
2022/10/05 03:46:51;;;;;;;1.02;1.02;;;;;;;;;;5053192;28;20016;-75
2022/10/05 03:49:36;;;;;;;0.93;0.90;;;;;;;;;;5067528;28;20029;-75
2022/10/05 03:52:09;;;;;;;1.13;1.10;;;;;;;;;;5067248;28;20013;-75
2022/10/05 03:54:38;;;;;;;1.00;1.00;;;;;;;;;;5066427;28;20033;-75
2022/10/05 03:57:12;;;;;;;1.15;1.15;;;;;;;;;;5058523;28;20036;-76
2022/10/05 03:59:56;;;;;;;1.50;1.02;;;;;;;;;;5072082;28;20028;-75
2022/10/05 04:02:28;;;;;;;1.10;1.10;;;;;;;;;;5066594;28;20032;-75
2022/10/05 04:05:11;;;;;;;1.30;1.20;;;;;;;;;;5072111;28;20282;-75
2022/10/05 04:07:59;;;;;;;0.80;0.80;;;;;;;;;;5060135;28;20036;-75
2022/10/05 04:10:27;;;;;;;2.10;1.10;;;;;;;;;;5062773;28;20028;-75
2022/10/05 04:13:02;;;;;;;1.13;1.10;;;;;;;;;;5068237;28;20020;-75
2022/10/05 04:15:39;;;;;;;1.27;1.17;;;;;;;;;;5062589;28;20093;-76
2022/10/05 04:18:11;;;;;;;1.15;1.15;;;;;;;;;;5045018;28;20135;-75
2022/10/05 04:20:40;;;;;;;1.08;1.08;;;;;;;;;;5040368;28;20081;-75
2022/10/05 04:23:09;;;;;;;3.08;1.10;;;;;;;;;;5070817;28;20032;-75
2022/10/05 04:26:05;;;;;;;1.00;1.00;;;;;;;;;;5063570;28;20482;-76
2022/10/05 04:28:44;;;;;;;1.20;1.15;;;;;;;;;;4978589;28;20043;-76
2022/10/05 04:31:13;;;;;;;1.15;1.00;;;;;;;;;;5063794;28;20029;-74
2022/10/05 04:33:40;;;;;;;1.25;1.08;;;;;;;;;;5066319;28;20032;-76
2022/10/05 04:36:16;;;;;;;0.88;0.88;;;;;;;;;;5065384;28;20032;-75
2022/10/05 04:38:48;;;;;;;1.10;1.10;;;;;;;;;;5066037;28;20058;-76
2022/10/05 04:41:33;;;;;;;1.00;1.00;;;;;;;;;;5070293;28;20537;-76
2022/10/05 04:44:18;;;;;;;2.40;1.20;;;;;;;;;;5058911;28;20383;-75
2022/10/05 04:46:53;;;;;;;1.93;1.20;;;;;;;;;;5064900;28;20266;-75
2022/10/05 04:49:19;;;;;;;3.85;1.60;;;;;;;;;;5059134;28;20040;-75
2022/10/05 04:51:54;;;;;;;1.13;1.10;;;;;;;;;;5069643;28;20492;-75
2022/10/05 04:54:20;;;;;;;;;;;;;;;;;;5066379;28;20411;-75
2022/10/05 04:57:09;;;;;;;1.52;1.42;;;;;;;;;;5055277;28;20027;-75
2022/10/05 04:59:35;;;;;;;1.50;1.33;;;;;;;;;;5015990;28;20040;-75
2022/10/05 05:02:05;;;;;;;2.97;1.33;;;;;;;;;;5060041;28;20043;-75
2022/10/05 05:04:50;;;;;;;1.27;1.17;;;;;;;;;;5042768;28;20077;-75
2022/10/05 05:07:20;;;;;;;1.92;1.25;;;;;;;;;;5058511;28;20041;-75
2022/10/05 05:10:02;;;;;;;2.45;1.30;;;;;;;;;;5070565;28;20025;-75
2022/10/05 05:12:47;;;;;;;1.75;1.27;;;;;;;;;;5058346;28;21326;-75
2022/10/05 05:15:22;;;;;;;1.27;1.17;;;;;;;;;;5068045;28;20043;-76
2022/10/05 05:17:48;;;;;;;1.13;1.13;;;;;;;;;;5056633;28;20029;-75
2022/10/05 05:20:17;;;;;;;1.83;1.38;;;;;;;;;;5055845;28;20051;-75
2022/10/05 05:22:48;;;;;;;2.38;1.50;;;;;;;;;;5066721;28;20476;-75
2022/10/05 05:25:34;;;;;;;2.42;1.70;;;;;;;;;;5051338;28;20075;-75
2022/10/05 05:28:20;;;;;;;1.55;1.40;;;;;;;;;;5065486;28;20017;-75
2022/10/05 05:31:07;;;;;;;1.73;1.30;;;;;;;;;;5064420;28;20086;-76
2022/10/05 05:33:48;;;;;;;2.92;1.40;;;;;;;;;;5049503;28;20075;-75
2022/10/05 05:36:31;;;;;;;1.30;1.17;;;;;;;;;;5046813;28;20030;-75
2022/10/05 05:39:15;;;;;;;1.95;1.50;;;;;;;;;;5065981;28;20100;-75
2022/10/05 05:41:51;;;;;;;4.28;1.70;;;;;;;;;;5064822;28;20033;-75
2022/10/05 05:44:26;;;;;;;2.90;1.30;;;;;;;;;;5063657;28;20501;-75
2022/10/05 05:47:14;;;;;;;1.67;1.23;;;;;;;;;;5060035;28;20377;-75
2022/10/05 05:49:47;;;;;;;1.58;1.48;;;;;;;;;;5051347;28;20502;-75
2022/10/05 05:52:21;;;;;;;1.20;1.20;;;;;;;;;;5067180;28;20530;-75
2022/10/05 05:54:56;;;;;;;1.67;1.58;;;;;;;;;;5049372;28;20033;-75
2022/10/05 05:57:32;;;;;;;1.50;1.40;;;;;;;;;;5055116;28;20485;-76
2022/10/05 06:00:06;;;;;;;1.05;1.05;;;;;;;;;;5066658;28;20043;-75
2022/10/05 06:02:40;;;;;;;1.47;1.37;;;;;;;;;;5047584;28;20657;-75
2022/10/05 06:05:24;;;;;;;1.42;1.25;;;;;;;;;;5068090;28;20036;-75
2022/10/05 06:07:51;;;;;;;1.65;1.40;;;;;;;;;;5071503;28;20039;-76
2022/10/05 06:10:25;;;;;;;1.88;1.77;;;;;;;;;;5079064;28;20029;-75
2022/10/05 06:12:52;;;;;;;3.60;1.30;;;;;;;;;;5060823;28;20631;-76
2022/10/05 06:15:18;;;;;;;2.15;1.45;;;;;;;;;;5049411;28;20033;-75
2022/10/05 06:17:51;;;;;;;2.25;1.40;;;;;;;;;;5052834;28;20029;-75
2022/10/05 06:20:33;;;;;;;1.40;1.30;;;;;;;;;;5061127;28;20032;-75
2022/10/05 06:23:01;;;;;;;2.10;1.38;;;;;;;;;;5062474;28;20623;-75
2022/10/05 06:25:49;;;;;;;1.83;1.50;;;;;;;;;;5056249;28;20052;-75
2022/10/05 06:28:15;;;;;;;1.38;1.27;;;;;;;;;;5062039;28;20039;-76
2022/10/05 06:31:00;;;;;;;1.30;1.20;;;;;;;;;;5056069;28;20136;-76
2022/10/05 06:33:43;;;;;;;2.10;1.60;;;;;;;;;;5062664;28;20039;-76
2022/10/05 06:36:27;;;;;;;1.77;1.45;;;;;;;;;;5048860;28;20752;-76
2022/10/05 06:39:09;;;;;;;1.98;1.67;;;;;;;;;;5067703;28;20506;-76
2022/10/05 06:41:48;;;;;;;4.65;1.52;;;;;;;;;;5068736;28;20028;-76
2022/10/05 06:44:22;;;;;;;2.58;1.90;;;;;;;;;;5068342;28;20028;-75
2022/10/05 06:46:57;;;;;;;2.10;1.50;;;;;;;;;;5070523;28;20099;-76
2022/10/05 06:49:25;;;;;;;2.03;1.92;;;;;;;;;;5071005;28;20033;-75
2022/10/05 06:51:56;;;;;;;1.52;1.42;;;;;;;;;;5073753;28;20456;-76
2022/10/05 06:54:41;;;;;;;1.42;1.33;;;;;;;;;;5068735;28;20036;-76
2022/10/05 06:57:35;;;;;;;1.30;1.27;;;;;;;;;;5072015;28;20025;-76
2022/10/05 07:00:06;;;;;;;2.97;1.60;;;;;;;;;;5069637;28;20086;-74
2022/10/05 07:02:41;;;;;;;1.50;1.40;;;;;;;;;;5059900;28;20048;-75
2022/10/05 07:05:16;;;;;;;1.63;1.52;;;;;;;;;;5055229;28;20029;-75
2022/10/05 07:07:42;;;;;;;;;;;;;;;;;;5065309;28;20032;-76
2022/10/05 07:10:14;;;;;;;2.78;1.73;;;;;;;;;;5068943;28;19912;-76
2022/10/05 07:12:49;;;;;;;2.55;1.70;;;;;;;;;;5068385;28;20031;-76
2022/10/05 07:15:15;;;;;;;;;;;;;;;;;;5053148;28;20063;-75
2022/10/05 07:17:43;;;;;;;;;;;;;;;;;;5068243;28;19947;-76
2022/10/05 07:20:12;;;;;;;2.90;1.77;;;;;;;;;;5068311;28;19912;-77
2022/10/05 07:22:46;;;;;;;1.40;1.30;;;;;;;;;;5056177;28;20560;-76
2022/10/05 07:25:21;;;;;;;1.80;1.70;;;;;;;;;;5056683;28;20105;-76
2022/10/05 07:27:57;;;;;;;1.88;1.63;;;;;;;;;;5062956;28;20028;-76
2022/10/05 07:30:23;;;;;;;1.98;1.52;;;;;;;;;;5066458;28;20036;-76
2022/10/05 07:33:01;;;;;;;1.55;1.45;;;;;;;;;;5061268;28;20051;-76
2022/10/05 07:38:33;;;;;;;1.90;1.38;;;;;;;;;;5075333;28;20109;-76
2022/10/05 07:41:02;;;;;;;1.85;1.25;;;;;;;;;;5073634;28;20225;-76
2022/10/05 07:43:32;;;;;;;1.80;1.63;;;;;;;;;;5065861;28;20029;-76
2022/10/05 07:46:22;;;;;;;1.20;1.20;;;;;;;;;;5066825;28;20103;-76
2022/10/05 07:49:06;;;;;;;2.53;1.50;;;;;;;;;;5052132;28;20032;-76
2022/10/05 07:51:36;;;;;;;1.50;1.40;;;;;;;;;;5075026;28;20024;-76
2022/10/05 07:54:11;;;;;;;1.70;1.60;;;;;;;;;;5068688;28;20024;-76
2022/10/05 07:56:40;;;;;;;3.17;1.75;;;;;;;;;;5067380;28;20078;-76
2022/10/05 07:59:29;;;;;;;2.38;1.60;;;;;;;;;;5047392;28;20119;-77
2022/10/05 08:02:05;;;;;;;2.55;1.63;;;;;;;;;;5059425;28;20089;-76
2022/10/05 08:04:35;;;;;;;1.50;1.40;;;;;;;;;;5061928;28;20159;-76
2022/10/05 08:07:06;;;;;;;1.90;1.60;;;;;;;;;;5059923;28;20271;-77
2022/10/05 08:09:41;;;;;;;2.80;1.40;;;;;;;;;;5063168;28;20020;-76
2022/10/05 08:12:25;;;;;;;2.57;1.63;;;;;;;;;;5063595;28;20035;-76
2022/10/05 08:15:10;;;;;;;6.65;2.03;;;;;;;;;;5063206;28;20029;-77
2022/10/05 08:17:49;;;;;;;2.00;1.60;;;;;;;;;;5063988;28;20031;-77
2022/10/05 08:20:17;;;;;;;1.95;1.40;;;;;;;;;;5064137;28;20282;-76
2022/10/05 08:22:46;;;;;;;5.82;1.83;;;;;;;;;;5052830;28;20560;-78
2022/10/05 08:25:21;;;;;;;1.90;1.52;;;;;;;;;;5063583;28;20050;-77
2022/10/05 08:27:53;;;;;;;2.35;1.40;;;;;;;;;;5051595;28;20024;-76
2022/10/05 08:30:19;;;;;;;5.18;1.65;;;;;;;;;;5086525;28;20036;-75
2022/10/05 08:32:54;;;;;;;1.50;1.40;;;;;;;;;;5067185;28;20037;-76
2022/10/05 08:35:26;;;;;;;2.35;1.65;;;;;;;;;;5061071;28;20085;-77
2022/10/05 08:37:54;;;;;;;4.03;1.60;;;;;;;;;;5091039;28;20032;-77
2022/10/05 08:40:23;;;;;;;2.63;1.92;;;;;;;;;;5068236;28;20040;-75
2022/10/05 08:42:55;;;;;;;4.60;1.80;;;;;;;;;;5050372;28;20039;-76
2022/10/05 08:45:34;;;;;;;4.47;1.80;;;;;;;;;;5063402;28;20392;-77
2022/10/05 08:48:00;;;;;;;3.28;1.55;;;;;;;;;;5049854;28;20035;-75
2022/10/05 08:50:26;;;;;;;2.45;1.60;;;;;;;;;;5068173;28;20024;-76
2022/10/05 08:53:04;;;;;;;2.15;1.52;;;;;;;;;;5062887;28;20090;-76
2022/10/05 08:55:47;;;;;;;1.92;1.50;;;;;;;;;;5062460;28;20135;-75
2022/10/05 08:58:16;;;;;;;2.00;1.63;;;;;;;;;;5064956;28;20037;-75
2022/10/05 09:00:50;;;;;;;1.67;1.58;;;;;;;;;;5066526;28;20031;-76
2022/10/05 09:03:35;;;;;;;1.43;1.33;;;;;;;;;;5055356;28;20055;-75
2022/10/05 09:06:04;;;;;;;1.50;1.40;;;;;;;;;;5068079;28;20048;-75
2022/10/05 09:08:50;;;;;;;5.00;2.03;;;;;;;;;;5050139;28;20052;-76
2022/10/05 09:11:31;;;;;;;1.50;1.38;;;;;;;;;;5047026;28;20389;-76
2022/10/05 09:14:10;;;;;;;1.75;1.65;;;;;;;;;;5046886;28;20087;-76
2022/10/05 09:16:55;;;;;;;2.50;1.60;;;;;;;;;;5070849;28;20036;-75
2022/10/05 09:19:21;;;;;;;1.63;1.52;;;;;;;;;;5047387;28;20035;-76
2022/10/05 09:22:06;;;;;;;1.60;1.50;;;;;;;;;;5070809;28;20520;-75
2022/10/05 09:24:33;;;;;;;1.70;1.60;;;;;;;;;;5067603;28;20063;-76
2022/10/05 09:27:19;;;;;;;3.78;1.50;;;;;;;;;;5061261;28;20024;-75
2022/10/05 09:29:45;;;;;;;2.20;1.75;;;;;;;;;;5057947;28;20085;-76
2022/10/05 09:32:23;;;;;;;1.58;1.40;;;;;;;;;;5047342;28;20039;-76
2022/10/05 09:34:54;;;;;;;1.60;1.50;;;;;;;;;;5060532;28;20039;-75
2022/10/05 09:37:20;;;;;;;1.90;1.70;;;;;;;;;;5068718;28;20020;-74
2022/10/05 09:39:49;;;;;;;3.28;1.77;;;;;;;;;;5064955;28;20492;-76
2022/10/05 09:42:22;;;;;;;2.63;1.60;;;;;;;;;;5061791;28;20123;-75
2022/10/05 09:45:07;;;;;;;2.22;1.60;;;;;;;;;;5045831;28;20390;-76
2022/10/05 09:47:43;;;;;;;1.93;1.67;;;;;;;;;;5065051;28;20478;-76
2022/10/05 09:50:28;;;;;;;2.30;1.67;;;;;;;;;;5060179;28;20039;-76
2022/10/05 09:53:00;;;;;;;2.00;1.80;;;;;;;;;;5061680;28;20031;-76
2022/10/05 09:55:38;;;;;;;2.00;1.70;;;;;;;;;;5060241;28;20059;-75
2022/10/05 09:58:27;;;;;;;2.92;1.50;;;;;;;;;;5048765;28;20041;-77
2022/10/05 10:00:59;;;;;;;2.85;1.60;;;;;;;;;;5046827;28;20032;-76
2022/10/05 10:03:38;;;;;;;1.90;1.52;;;;;;;;;;5045301;28;20029;-76
2022/10/05 10:06:10;;;;;;;3.00;1.45;;;;;;;;;;5061518;28;20025;-76
2022/10/05 10:08:50;;;;;;;1.50;1.40;;;;;;;;;;5048239;28;20053;-76
2022/10/05 10:11:20;;;;;;;1.50;1.40;;;;;;;;;;5045289;28;20024;-76
2022/10/05 10:14:04;;;;;;;1.92;1.48;;;;;;;;;;5063716;28;20374;-76
2022/10/05 10:16:34;;;;;;;2.08;1.50;;;;;;;;;;5046519;28;21874;-76
2022/10/05 10:19:18;;;;;;;1.63;1.52;;;;;;;;;;5063926;28;20032;-76
2022/10/05 10:21:56;;;;;;;2.42;1.70;;;;;;;;;;5059858;28;20039;-77
2022/10/05 10:24:37;;;;;;;2.20;1.58;;;;;;;;;;5067631;28;20052;-76
2022/10/05 10:27:22;;;;;;;1.60;1.50;;;;;;;;;;5063832;28;20035;-76
2022/10/05 10:29:48;;;;;;;2.03;1.63;;;;;;;;;;5047081;28;20063;-77
2022/10/05 10:32:17;;;;;;;2.17;1.77;;;;;;;;;;5046905;28;20027;-76
2022/10/05 10:35:03;;;;;;;1.90;1.50;;;;;;;;;;5062814;28;20107;-76
2022/10/05 10:37:29;;;;;;;;;;;;;;;;;;5051390;28;20036;-76
2022/10/05 10:40:14;;;;;;;2.85;1.70;;;;;;;;;;5067998;28;19955;-76
2022/10/05 10:42:43;;;;;;;3.13;1.92;;;;;;;;;;5065273;28;20044;-76
2022/10/05 10:45:18;;;;;;;1.50;1.40;;;;;;;;;;5049447;28;20059;-76
2022/10/05 10:47:47;;;;;;;2.13;1.63;;;;;;;;;;5066063;28;20078;-76
2022/10/05 10:50:38;;;;;;;2.90;1.52;;;;;;;;;;5050899;28;20037;-77
2022/10/05 10:53:23;;;;;;;2.38;1.83;;;;;;;;;;5068238;28;20029;-76
2022/10/05 10:55:55;;;;;;;1.60;1.30;;;;;;;;;;5062553;28;20108;-76
2022/10/05 10:58:21;;;;;;;1.70;1.60;;;;;;;;;;5067767;28;20040;-76
2022/10/05 11:01:06;;;;;;;2.45;1.38;;;;;;;;;;5058746;28;20033;-76
2022/10/05 11:03:32;;;;;;;1.60;1.50;;;;;;;;;;5064290;28;20067;-76
2022/10/05 11:06:17;;;;;;;4.20;2.00;;;;;;;;;;5047921;28;20283;-76
2022/10/05 11:08:45;;;;;;;3.15;1.70;;;;;;;;;;5066958;28;20028;-75
2022/10/05 11:11:21;;;;;;;3.17;1.35;;;;;;;;;;5066279;28;20075;-76
2022/10/05 11:13:51;;;;;;;2.58;1.30;;;;;;;;;;5048677;28;20048;-77
2022/10/05 11:16:36;;;;;;;2.15;1.60;;;;;;;;;;5066096;28;20048;-76
2022/10/05 11:19:11;;;;;;;2.30;1.58;;;;;;;;;;5054041;28;20024;-75
2022/10/05 11:21:38;;;;;;;2.80;1.38;;;;;;;;;;5047735;28;20047;-76
2022/10/05 11:24:07;;;;;;;3.67;1.50;;;;;;;;;;5079287;28;20608;-75
2022/10/05 11:26:52;;;;;;;2.83;1.50;;;;;;;;;;5039259;28;20469;-75
2022/10/05 11:29:37;;;;;;;2.13;1.67;;;;;;;;;;5058924;28;20024;-76
2022/10/05 11:32:22;;;;;;;1.60;1.50;;;;;;;;;;5060463;28;20524;-75
2022/10/05 11:34:56;;;;;;;4.40;1.60;;;;;;;;;;5062358;28;20028;-75
2022/10/05 11:37:32;;;;;;;4.10;1.63;;;;;;;;;;5046894;28;20032;-75
2022/10/05 11:40:16;;;;;;;2.92;1.70;;;;;;;;;;5065636;28;20104;-75
2022/10/05 11:43:01;;;;;;;5.00;1.98;;;;;;;;;;5064999;28;20034;-76
2022/10/05 11:45:42;;;;;;;3.95;2.70;;;;;;;;;;5064361;28;20028;-75
2022/10/05 11:48:24;;;;;;;3.60;1.70;;;;;;;;;;5062352;28;20060;-75
2022/10/05 11:51:18;;;;;;;2.38;1.65;;;;;;;;;;5044957;28;20132;-75
2022/10/05 11:54:03;;;;;;;2.15;1.95;;;;;;;;;;5080016;28;20520;-75
2022/10/05 11:56:29;;;;;;;1.77;1.50;;;;;;;;;;5064627;28;20025;-74
2022/10/05 11:58:59;;;;;;;4.15;1.70;;;;;;;;;;5067583;28;20063;-74
2022/10/05 12:01:34;;;;;;;1.92;1.77;;;;;;;;;;5050306;28;20055;-75
2022/10/05 12:04:16;;;;;;;3.15;1.90;;;;;;;;;;5051210;28;20547;-74
2022/10/05 12:06:54;;;;;;;4.35;2.10;;;;;;;;;;5062467;28;20039;-74
2022/10/05 12:09:34;;;;;;;2.63;1.42;;;;;;;;;;5066333;28;20809;-75
2022/10/05 12:12:21;;;;;;;4.40;1.65;;;;;;;;;;5047373;28;20043;-74
2022/10/05 12:14:47;;;;;;;1.13;1.02;;;;;;;;;;5064802;28;20021;-75
2022/10/05 12:17:20;;;;;;;2.72;1.60;;;;;;;;;;5064036;28;20063;-75
2022/10/05 12:19:54;;;;;;;0.98;0.98;;;;;;;;;;5063498;28;20519;-74
2022/10/05 12:22:20;;;;;;;1.75;1.65;;;;;;;;;;5066463;28;20385;-74
2022/10/05 12:25:05;;;;;;;2.55;1.25;;;;;;;;;;5049972;28;20063;-74
2022/10/05 12:27:34;;;;;;;1.40;1.30;;;;;;;;;;5065497;28;20464;-74
2022/10/05 12:30:11;;;;;;;3.65;1.25;;;;;;;;;;5065428;28;20020;-74
2022/10/05 12:32:56;;;;;;;1.05;1.05;;;;;;;;;;5066300;28;20370;-75
2022/10/05 12:35:37;;;;;;;1.25;1.08;;;;;;;;;;5044626;28;20028;-77
2022/10/05 12:38:06;;;;;;;1.40;1.30;;;;;;;;;;5046121;28;20032;-77
2022/10/05 12:40:36;;;;;;;1.15;1.15;;;;;;;;;;5061182;28;20851;-78
2022/10/05 12:43:04;;;;;;;1.17;1.17;;;;;;;;;;5063864;28;20043;-78
2022/10/05 12:45:42;;;;;;;1.42;1.33;;;;;;;;;;5061832;28;20044;-77
2022/10/05 12:48:08;;;;;;;2.33;1.13;;;;;;;;;;5046225;28;20115;-76
2022/10/05 12:50:35;;;;;;;1.67;1.58;;;;;;;;;;5065280;28;20556;-77
2022/10/05 12:53:12;;;;;;;2.45;1.33;;;;;;;;;;5063004;28;20111;-76
2022/10/05 12:56:07;;;;;;;1.95;1.73;;;;;;;;;;5063838;28;20021;-76
2022/10/05 12:58:52;;;;;;;2.13;1.50;;;;;;;;;;5029134;28;20522;-76
2022/10/05 13:01:27;;;;;;;3.53;2.05;;;;;;;;;;5047023;28;20028;-75
2022/10/05 13:04:14;;;;;;;4.57;1.55;;;;;;;;;;5058319;28;20504;-76
2022/10/05 13:06:58;;;;;;;2.10;1.75;;;;;;;;;;5077640;28;20033;-76
2022/10/05 13:09:43;;;;;;;2.00;1.27;;;;;;;;;;5066708;28;20039;-77
2022/10/05 13:12:21;;;;;;;3.47;1.35;;;;;;;;;;5058896;28;20036;-76
2022/10/05 13:14:55;;;;;;;1.50;1.40;;;;;;;;;;5065549;28;20027;-79
2022/10/05 13:17:27;;;;;;;2.45;1.60;;;;;;;;;;5064595;28;20047;-77
2022/10/05 13:20:03;;;;;;;3.58;1.70;;;;;;;;;;5062476;28;20374;-76
2022/10/05 13:22:29;;;;;;;1.30;1.30;;;;;;;;;;5047600;28;20032;-77
2022/10/05 13:24:58;;;;;;;4.82;2.15;;;;;;;;;;5050193;28;20501;-75
2022/10/05 13:27:40;;;;;;;2.33;2.13;;;;;;;;;;5064211;28;20025;-77
2022/10/05 13:30:20;;;;;;;2.72;2.05;;;;;;;;;;5063816;28;20040;-74
2022/10/05 13:32:47;;;;;;;1.73;1.60;;;;;;;;;;5066211;28;20052;-75
2022/10/05 13:35:25;;;;;;;2.03;1.73;;;;;;;;;;5061865;28;20021;-75
2022/10/05 13:38:00;;;;;;;1.60;1.50;;;;;;;;;;5067249;28;20762;-75
2022/10/05 13:40:35;;;;;;;3.60;1.80;;;;;;;;;;5048447;28;20401;-75
2022/10/05 13:43:20;;;;;;;1.77;1.60;;;;;;;;;;5060365;28;20041;-75
2022/10/05 13:45:54;;;;;;;2.83;2.38;;;;;;;;;;5047868;28;20140;-75
2022/10/05 13:48:38;;;;;;;3.40;2.90;;;;;;;;;;5063525;28;20029;-78
2022/10/05 13:51:16;;;;;;;2.75;1.88;;;;;;;;;;5062265;28;20508;-75
2022/10/05 13:53:49;;;;;;;2.88;1.60;;;;;;;;;;5066304;28;20028;-75
2022/10/05 13:56:24;;;;;;;4.32;2.00;;;;;;;;;;5064135;28;20089;-76
2022/10/05 13:59:10;;;;;;;2.90;1.75;;;;;;;;;;5062867;28;20028;-74
2022/10/05 14:01:47;;;;;;;3.63;1.80;;;;;;;;;;5044814;28;20063;-76
2022/10/05 14:04:19;;;;;;;3.47;1.90;;;;;;;;;;5040759;28;20028;-75
2022/10/05 14:06:46;;;;;;;3.45;1.75;;;;;;;;;;5046820;28;20344;-75
2022/10/05 14:09:32;;;;;;;6.85;2.00;;;;;;;;;;5063338;28;20658;-75
2022/10/05 14:12:04;;;;;;;5.38;2.10;;;;;;;;;;5067350;28;20107;-75
2022/10/05 14:14:32;;;;;;;4.07;2.60;;;;;;;;;;5063849;28;20123;-75
2022/10/05 14:16:59;;;;;;;2.28;1.45;;;;;;;;;;5067875;28;20025;-75
2022/10/05 14:19:54;;;;;;;4.35;1.67;;;;;;;;;;5067176;28;20058;-75
2022/10/05 14:22:21;;;;;;;4.93;2.00;;;;;;;;;;5037947;28;20040;-75
2022/10/05 14:24:53;;;;;;;4.28;2.03;;;;;;;;;;5066241;28;20423;-75
2022/10/05 14:27:21;;;;;;;6.72;2.05;;;;;;;;;;5065331;28;20029;-74
2022/10/05 14:30:17;;;;;;;5.35;1.80;;;;;;;;;;5067835;28;20028;-75
2022/10/05 14:32:48;;;;;;;5.18;2.00;;;;;;;;;;5048857;28;20111;-74
2022/10/05 14:35:15;;;;;;;4.93;1.88;;;;;;;;;;5064558;28;20575;-75
2022/10/05 14:37:47;;;;;;;5.13;1.90;;;;;;;;;;5071265;28;20052;-75
2022/10/05 14:40:28;;;;;;;7.47;2.13;;;;;;;;;;5050495;28;20782;-74
2022/10/05 14:42:55;;;;;;;2.92;1.65;;;;;;;;;;5065562;28;20035;-74
2022/10/05 14:45:22;;;;;;;4.75;1.88;;;;;;;;;;5069808;28;20036;-75
2022/10/05 14:48:01;;;;;;;4.40;1.90;;;;;;;;;;5068017;28;20032;-75
2022/10/05 14:50:31;;;;;;;5.35;1.95;;;;;;;;;;5066614;28;20121;-75
2022/10/05 14:53:00;;;;;;;5.80;1.83;;;;;;;;;;5046323;28;20028;-75
2022/10/05 14:55:34;;;;;;;2.40;1.75;;;;;;;;;;5047272;28;20500;-75
2022/10/05 14:58:06;;;;;;;5.90;3.67;;;;;;;;;;5066570;28;20028;-75
2022/10/05 15:00:38;;;;;;;6.05;2.65;;;;;;;;;;5070508;28;20086;-75
2022/10/05 15:03:04;;;;;;;4.75;2.40;;;;;;;;;;5065682;28;20064;-74
2022/10/05 15:05:33;;;;;;;4.95;2.30;;;;;;;;;;5064112;28;20531;-75
2022/10/05 15:08:03;;;;;;;4.60;2.70;;;;;;;;;;5048773;28;20040;-76
2022/10/05 15:10:45;;;;;;;5.05;1.83;;;;;;;;;;5067222;28;20029;-75
2022/10/05 15:13:23;;;;;;;9.02;2.25;;;;;;;;;;5046858;28;20035;-75
2022/10/05 15:15:53;;;;;;;4.18;1.88;;;;;;;;;;5065628;28;20072;-75
2022/10/05 15:18:38;;;;;;;5.57;3.10;;;;;;;;;;5049540;28;20028;-75
2022/10/05 15:21:05;;;;;;;9.52;4.15;;;;;;;;;;5063630;28;20545;-75
2022/10/05 15:23:48;;;;;;;14.70;6.72;;;;;;;;;;5066690;28;20120;-75
2022/10/05 15:26:17;;;;;;;7.50;3.92;;;;;;;;;;5048616;28;20041;-75
2022/10/05 15:28:58;;;;;;;4.55;2.60;;;;;;;;;;5046746;28;20032;-75
2022/10/05 15:31:38;;;;;;;5.95;1.90;;;;;;;;;;5042402;28;20045;-76